createdAt,value
2019-02-26T00:00:44.901Z,3.83
2019-02-26T00:03:09.290Z,3.83
2019-02-26T00:05:36.922Z,3.70
2019-02-26T00:08:04.476Z,3.67
2019-02-26T00:10:35.884Z,4.43
2019-02-26T00:12:59.996Z,4.57
2019-02-26T00:15:31.268Z,3.50
2019-02-26T00:17:55.144Z,3.77
2019-02-26T00:20:23.305Z,3.90
2019-02-26T00:22:52.863Z,3.10
2019-02-26T00:25:20.375Z,3.10
2019-02-26T00:27:47.644Z,3.20
2019-02-26T00:30:15.720Z,3.17
2019-02-26T00:32:42.005Z,3.20
2019-02-26T00:35:10.360Z,3.20
2019-02-26T00:37:37.927Z,4.45
2019-02-26T00:40:09.959Z,3.40
2019-02-26T00:42:36.046Z,4.00
2019-02-26T00:45:05.129Z,4.27
2019-02-26T00:47:33.910Z,4.07
2019-02-26T00:49:59.295Z,4.80
2019-02-26T00:52:28.321Z,3.87
2019-02-26T00:54:57.641Z,4.68
2019-02-26T00:57:22.850Z,3.90
2019-02-26T00:59:50.427Z,4.17
2019-02-26T01:02:17.997Z,3.67
2019-02-26T01:04:46.729Z,3.73
2019-02-26T01:07:13.187Z,3.70
2019-02-26T01:09:41.128Z,2.90
2019-02-26T01:12:09.590Z,3.43
2019-02-26T01:14:36.294Z,3.77
2019-02-26T01:17:03.912Z,3.37
2019-02-26T01:19:32.079Z,3.47
2019-02-26T01:21:59.419Z,2.73
2019-02-26T01:24:28.094Z,4.20
2019-02-26T01:26:54.572Z,3.87
2019-02-26T01:29:23.093Z,6.60
2019-02-26T01:31:49.752Z,7.67
2019-02-26T01:34:18.155Z,6.43
2019-02-26T01:36:47.108Z,5.40
2019-02-26T01:39:13.796Z,4.90
2019-02-26T01:41:43.379Z,6.00
2019-02-26T01:44:08.817Z,6.40
2019-02-26T01:46:36.666Z,3.80
2019-02-26T01:49:04.335Z,3.60
2019-02-26T01:51:30.484Z,3.43
2019-02-26T01:53:58.086Z,3.67
2019-02-26T01:56:25.668Z,3.80
2019-02-26T01:58:56.553Z,4.40
2019-02-26T02:01:23.288Z,4.00
2019-02-26T02:03:50.899Z,4.27
2019-02-26T02:06:18.141Z,4.10
2019-02-26T02:08:45.935Z,4.93
2019-02-26T02:11:12.756Z,4.93
2019-02-26T02:13:41.381Z,5.67
2019-02-26T02:16:09.024Z,4.50
2019-02-26T02:18:35.524Z,3.60
2019-02-26T02:21:03.874Z,4.47
2019-02-26T02:23:31.946Z,4.33
2019-02-26T02:26:02.124Z,4.00
2019-02-26T02:28:28.608Z,4.70
2019-02-26T02:30:55.468Z,4.97
2019-02-26T02:33:24.220Z,4.43
2019-02-26T02:35:51.433Z,4.30
2019-02-26T02:38:20.396Z,3.80
2019-02-26T02:40:48.890Z,4.90
2019-02-26T02:43:16.135Z,7.60
2019-02-26T02:45:41.790Z,5.80
2019-02-26T02:48:11.743Z,6.80
2019-02-26T02:50:37.674Z,6.63
2019-02-26T02:53:05.255Z,5.20
2019-02-26T02:55:32.872Z,6.75
2019-02-26T02:58:00.540Z,5.13
2019-02-26T03:00:28.780Z,4.60
2019-02-26T03:02:56.341Z,4.50
2019-02-26T03:05:23.218Z,3.73
2019-02-26T03:07:53.306Z,3.70
2019-02-26T03:10:18.395Z,5.00
2019-02-26T03:12:50.943Z,6.03
2019-02-26T03:15:14.414Z,4.23
2019-02-26T03:17:41.956Z,4.07
2019-02-26T03:20:10.170Z,4.00
2019-02-26T03:22:39.690Z,4.40
2019-02-26T03:25:05.074Z,5.20
2019-02-26T03:27:34.319Z,4.53
2019-02-26T03:30:02.005Z,5.60
2019-02-26T03:32:27.851Z,3.87
2019-02-26T03:34:55.425Z,4.30
2019-02-26T03:37:23.364Z,4.87
2019-02-26T03:39:52.647Z,4.37
2019-02-26T03:42:20.679Z,3.70
2019-02-26T03:44:46.892Z,4.20
2019-02-26T03:47:16.250Z,4.20
2019-02-26T03:49:42.368Z,4.00
2019-02-26T03:52:09.318Z,4.23
2019-02-26T03:54:39.845Z,4.40
2019-02-26T03:57:04.515Z,3.93
2019-02-26T03:59:32.101Z,3.70
2019-02-26T04:01:59.713Z,3.70
2019-02-26T04:04:30.481Z,3.70
2019-02-26T04:06:55.839Z,3.97
2019-02-26T04:09:22.937Z,3.60
2019-02-26T04:11:52.927Z,3.80
2019-02-26T04:14:19.956Z,4.17
2019-02-26T04:16:45.724Z,3.73
2019-02-26T04:19:14.105Z,3.57
2019-02-26T04:22:21.034Z,3.40
2019-02-26T04:24:47.367Z,3.73
2019-02-26T04:27:34.041Z,4.17
2019-02-26T04:30:22.090Z,3.77
2019-02-26T04:33:14.440Z,4.83
2019-02-26T04:35:50.021Z,3.77
2019-02-26T04:38:33.342Z,3.50
2019-02-26T04:41:03.089Z,5.40
2019-02-26T04:43:36.012Z,5.00
2019-02-26T04:46:19.218Z,4.33
2019-02-26T04:48:46.797Z,4.60
2019-02-26T04:51:14.370Z,4.00
2019-02-26T04:53:41.985Z,4.43
2019-02-26T04:56:12.815Z,3.70
2019-02-26T04:58:39.769Z,4.00
2019-02-26T05:01:07.993Z,4.07
2019-02-26T05:03:33.363Z,3.73
2019-02-26T05:06:03.038Z,5.27
2019-02-26T05:08:31.989Z,4.37
2019-02-26T05:10:57.972Z,3.97
2019-02-26T05:13:26.562Z,4.40
2019-02-26T05:15:53.279Z,3.43
2019-02-26T05:18:23.088Z,5.70
2019-02-26T05:20:48.620Z,6.15
2019-02-26T05:23:16.010Z,5.33
2019-02-26T05:25:44.858Z,4.27
2019-02-26T05:28:14.108Z,4.30
2019-02-26T05:30:43.125Z,4.30
2019-02-26T05:33:09.085Z,4.40
2019-02-26T05:35:37.811Z,3.27
2019-02-26T05:38:06.899Z,4.23
2019-02-26T05:40:31.866Z,4.13
2019-02-26T05:43:01.480Z,7.70
2019-02-26T05:45:29.340Z,10.10
2019-02-26T05:47:58.027Z,9.67
2019-02-26T05:50:22.266Z,5.50
2019-02-26T05:52:57.546Z,3.77
2019-02-26T05:55:20.599Z,4.30
2019-02-26T05:57:46.048Z,3.87
2019-02-26T06:00:17.089Z,5.63
2019-02-26T06:02:44.286Z,4.37
2019-02-26T06:05:08.822Z,5.30
2019-02-26T06:07:38.612Z,5.37
2019-02-26T06:10:04.374Z,5.30
2019-02-26T06:12:35.340Z,5.20
2019-02-26T06:15:04.182Z,4.90
2019-02-26T06:17:27.948Z,4.73
2019-02-26T06:19:57.101Z,5.10
2019-02-26T06:22:24.315Z,6.37
2019-02-26T06:24:54.923Z,6.27
2019-02-26T06:27:19.593Z,5.77
2019-02-26T06:29:45.891Z,6.03
2019-02-26T06:32:14.270Z,5.73
2019-02-26T06:34:42.616Z,4.33
2019-02-26T06:37:13.845Z,4.20
2019-02-26T06:39:40.775Z,4.23
2019-02-26T06:42:10.364Z,4.53
2019-02-26T06:44:36.850Z,4.13
2019-02-26T06:47:04.790Z,4.90
2019-02-26T06:49:31.118Z,3.93
2019-02-26T06:51:59.223Z,4.20
2019-02-26T06:54:28.934Z,4.20
2019-02-26T06:56:54.393Z,5.73
2019-02-26T06:59:34.225Z,6.05
2019-02-26T07:01:59.262Z,4.37
2019-02-26T07:04:27.046Z,4.30
2019-02-26T07:06:55.354Z,4.30
2019-02-26T07:09:22.031Z,4.13
2019-02-26T07:11:49.602Z,4.33
2019-02-26T07:14:17.261Z,4.10
2019-02-26T07:16:44.837Z,4.27
2019-02-26T07:19:14.169Z,4.93
2019-02-26T07:21:40.636Z,4.00
2019-02-26T07:24:08.387Z,4.53
2019-02-26T07:26:38.176Z,5.00
2019-02-26T07:29:05.707Z,4.93
2019-02-26T07:31:33.172Z,5.27
2019-02-26T07:34:01.363Z,4.90
2019-02-26T07:36:28.183Z,4.40
2019-02-26T07:38:56.391Z,5.37
2019-02-26T07:41:23.182Z,5.90
2019-02-26T07:43:51.948Z,5.40
2019-02-26T07:46:19.289Z,5.77
2019-02-26T07:48:48.638Z,6.07
2019-02-26T07:51:13.732Z,5.53
2019-02-26T07:53:44.127Z,5.03
2019-02-26T07:56:08.901Z,6.87
2019-02-26T07:58:38.467Z,5.50
2019-02-26T08:01:04.056Z,5.43
2019-02-26T08:03:32.231Z,5.50
2019-02-26T08:06:04.115Z,5.00
2019-02-26T08:08:27.364Z,4.90
2019-02-26T08:10:54.978Z,5.30
2019-02-26T08:13:24.368Z,5.13
2019-02-26T08:15:50.123Z,5.20
2019-02-26T08:18:17.728Z,5.60
2019-02-26T08:20:45.293Z,5.20
2019-02-26T08:23:14.772Z,5.37
2019-02-26T08:25:41.233Z,6.23
2019-02-26T08:28:09.568Z,5.57
2019-02-26T08:30:40.258Z,5.90
2019-02-26T08:33:07.221Z,5.30
2019-02-26T08:35:32.376Z,5.70
2019-02-26T08:37:59.998Z,5.27
2019-02-26T08:40:27.588Z,5.93
2019-02-26T08:42:55.155Z,5.67
2019-02-26T08:45:25.487Z,5.63
2019-02-26T08:47:50.347Z,5.60
2019-02-26T08:50:17.954Z,5.37
2019-02-26T08:52:49.424Z,4.83
2019-02-26T08:55:18.388Z,6.60
2019-02-26T08:57:43.492Z,5.63
2019-02-26T09:00:11.107Z,5.77
2019-02-26T09:02:38.677Z,5.97
2019-02-26T09:05:07.484Z,6.93
2019-02-26T09:07:34.445Z,6.77
2019-02-26T09:10:02.017Z,6.53
2019-02-26T09:12:29.699Z,6.17
2019-02-26T09:14:58.012Z,5.83
2019-02-26T09:17:26.789Z,6.73
2019-02-26T09:20:06.401Z,6.13
2019-02-26T09:22:21.190Z,5.90
2019-02-26T09:24:49.430Z,6.00
2019-02-26T09:27:16.466Z,6.03
2019-02-26T09:29:48.987Z,5.57
2019-02-26T09:32:14.439Z,5.60
2019-02-26T09:34:41.322Z,5.53
2019-02-26T09:37:08.916Z,5.50
2019-02-26T09:39:38.635Z,6.30
2019-02-26T09:42:04.610Z,5.70
2019-02-26T09:44:33.960Z,5.77
2019-02-26T09:47:02.386Z,5.33
2019-02-26T09:49:28.413Z,4.90
2019-02-26T09:51:56.805Z,4.37
2019-02-26T09:54:23.988Z,4.90
2019-02-26T09:56:51.576Z,4.03
2019-02-26T09:59:19.159Z,4.50
2019-02-26T10:01:47.217Z,5.20
2019-02-26T10:04:14.788Z,4.97
2019-02-26T10:06:43.016Z,5.40
2019-02-26T10:09:13.157Z,4.20
2019-02-26T10:11:39.393Z,4.57
2019-02-26T10:14:07.809Z,3.60
2019-02-26T10:16:33.631Z,4.13
2019-02-26T10:19:01.221Z,4.60
2019-02-26T10:21:29.575Z,3.93
2019-02-26T10:23:59.332Z,4.47
2019-02-26T10:26:26.385Z,4.50
2019-02-26T10:28:58.123Z,3.80
2019-02-26T10:31:24.125Z,4.55
2019-02-26T10:33:50.791Z,4.57
2019-02-26T10:36:18.397Z,4.43
2019-02-26T10:38:44.309Z,3.80
2019-02-26T10:41:11.892Z,3.63
2019-02-26T10:43:40.121Z,3.80
2019-02-26T10:46:07.929Z,4.10
2019-02-26T10:48:35.526Z,4.63
2019-02-26T10:51:06.689Z,5.30
2019-02-26T10:53:32.630Z,5.13
2019-02-26T10:56:00.261Z,3.70
2019-02-26T10:58:27.845Z,3.83
2019-02-26T11:00:58.556Z,3.77
2019-02-26T11:03:23.015Z,3.43
2019-02-26T11:05:52.156Z,3.40
2019-02-26T11:08:20.576Z,3.40
2019-02-26T11:10:47.878Z,2.90
2019-02-26T11:13:17.128Z,3.00
2019-02-26T11:15:41.311Z,3.20
2019-02-26T11:18:11.497Z,3.00
2019-02-26T11:20:36.598Z,2.57
2019-02-26T11:23:08.007Z,2.40
2019-02-26T11:25:31.764Z,2.20
2019-02-26T11:28:02.083Z,2.30
2019-02-26T11:30:30.231Z,2.30
2019-02-26T11:32:58.770Z,2.50
2019-02-26T11:35:24.537Z,2.40
2019-02-26T11:37:52.233Z,3.03
2019-02-26T11:40:27.629Z,2.43
2019-02-26T11:42:53.556Z,2.50
2019-02-26T11:45:24.108Z,2.00
2019-02-26T11:47:52.418Z,2.67
2019-02-26T11:50:27.141Z,2.90
2019-02-26T11:52:54.242Z,7.65
2019-02-26T11:55:18.630Z,2.70
2019-02-26T11:57:47.892Z,2.90
2019-02-26T12:00:24.327Z,2.60
2019-02-26T12:02:43.552Z,2.10
2019-02-26T12:05:10.738Z,2.53
2019-02-26T12:07:37.463Z,2.27
2019-02-26T12:10:09.629Z,1.80
2019-02-26T12:12:34.223Z,2.20
2019-02-26T12:15:02.074Z,2.60
2019-02-26T12:17:27.929Z,2.00
2019-02-26T12:19:56.218Z,1.70
2019-02-26T12:22:25.181Z,1.57
2019-02-26T12:24:55.772Z,1.60
2019-02-26T12:27:20.912Z,1.70
2019-02-26T12:29:48.274Z,1.90
2019-02-26T12:32:16.974Z,1.93
2019-02-26T12:34:44.674Z,1.50
2019-02-26T12:37:11.676Z,1.10
2019-02-26T12:39:37.780Z,1.37
2019-02-26T12:42:07.138Z,1.43
2019-02-26T12:44:35.494Z,1.17
2019-02-26T12:47:00.614Z,1.50
2019-02-26T12:49:32.593Z,1.27
2019-02-26T12:51:59.791Z,1.23
2019-02-26T12:54:26.888Z,1.20
2019-02-26T12:56:54.986Z,1.60
2019-02-26T12:59:20.526Z,1.27
2019-02-26T13:01:49.279Z,1.33
2019-02-26T13:04:19.587Z,1.60
2019-02-26T13:06:47.725Z,1.20
2019-02-26T13:09:10.945Z,0.90
2019-02-26T13:11:38.586Z,0.80
2019-02-26T13:14:06.183Z,0.80
2019-02-26T13:16:33.756Z,0.80
2019-02-26T13:19:04.546Z,0.90
2019-02-26T13:21:29.302Z,0.90
2019-02-26T13:24:03.594Z,1.10
2019-02-26T13:26:24.478Z,0.90
2019-02-26T13:28:52.697Z,1.10
2019-02-26T13:31:22.548Z,0.90
2019-02-26T13:33:48.118Z,1.30
2019-02-26T13:36:16.365Z,1.33
2019-02-26T13:38:48.183Z,1.17
2019-02-26T13:41:29.013Z,1.20
2019-02-26T13:43:38.514Z,1.00
2019-02-26T13:46:06.142Z,1.00
2019-02-26T13:48:33.718Z,1.17
2019-02-26T13:51:01.299Z,1.03
2019-02-26T13:53:28.923Z,1.10
2019-02-26T13:55:57.272Z,1.17
2019-02-26T13:58:24.865Z,0.83
2019-02-26T14:00:52.482Z,0.90
2019-02-26T14:03:20.099Z,0.80
2019-02-26T14:05:47.635Z,0.70
2019-02-26T14:08:15.255Z,0.70
2019-02-26T14:10:42.835Z,0.90
2019-02-26T14:13:11.214Z,0.60
2019-02-26T14:15:38.880Z,0.63
2019-02-26T14:18:06.467Z,1.00
2019-02-26T14:20:34.812Z,1.25
2019-02-26T14:23:02.459Z,0.70
2019-02-26T14:25:30.031Z,1.23
2019-02-26T14:27:57.610Z,1.07
2019-02-26T14:30:25.236Z,0.93
2019-02-26T14:32:52.814Z,1.20
2019-02-26T14:35:20.400Z,1.10
2019-02-26T14:37:48.499Z,1.20
2019-02-26T14:40:19.601Z,1.20
2019-02-26T14:42:47.189Z,1.50
2019-02-26T14:45:21.530Z,1.20
2019-02-26T14:47:49.872Z,1.63
2019-02-26T14:50:20.596Z,1.13
2019-02-26T14:52:48.746Z,1.60
2019-02-26T14:55:16.329Z,2.00
2019-02-26T14:57:43.911Z,1.40
2019-02-26T15:00:18.541Z,1.50
2019-02-26T15:02:46.116Z,3.15
2019-02-26T15:05:14.467Z,1.50
2019-02-26T15:07:42.087Z,1.30
2019-02-26T15:10:09.665Z,1.70
2019-02-26T15:12:37.280Z,1.40
2019-02-26T15:15:05.313Z,1.20
2019-02-26T15:17:32.856Z,1.07
2019-02-26T15:20:00.511Z,1.20
2019-02-26T15:22:28.072Z,1.60
2019-02-26T15:24:55.649Z,1.10
2019-02-26T15:27:23.228Z,1.17
2019-02-26T15:29:50.880Z,1.20
2019-02-26T15:32:18.473Z,1.00
2019-02-26T15:34:46.045Z,1.20
2019-02-26T15:37:14.422Z,1.40
2019-02-26T15:39:42.004Z,1.10
2019-02-26T15:42:09.632Z,0.90
2019-02-26T15:44:37.210Z,1.10
2019-02-26T15:47:04.779Z,1.07
2019-02-26T15:49:33.202Z,1.10
2019-02-26T15:52:00.783Z,1.00
2019-02-26T15:54:28.367Z,0.87
2019-02-26T15:56:57.673Z,0.80
2019-02-26T15:59:24.325Z,0.90
2019-02-26T16:01:55.299Z,1.00
2019-02-26T16:04:19.885Z,1.00
2019-02-26T16:06:47.469Z,1.20
2019-02-26T16:09:15.483Z,0.73
2019-02-26T16:11:42.645Z,0.90
2019-02-26T16:14:10.992Z,0.90
2019-02-26T16:16:38.615Z,0.87
2019-02-26T16:19:06.208Z,0.80
2019-02-26T16:21:33.800Z,0.80
2019-02-26T16:24:01.425Z,1.10
2019-02-26T16:26:29.002Z,1.23
2019-02-26T16:28:56.587Z,0.80
2019-02-26T16:31:29.588Z,0.77
2019-02-26T16:33:53.139Z,0.70
2019-02-26T16:36:20.719Z,0.93
2019-02-26T16:38:51.423Z,0.90
2019-02-26T16:41:16.720Z,0.80
2019-02-26T16:43:44.294Z,0.93
2019-02-26T16:46:11.959Z,1.17
2019-02-26T16:48:40.211Z,1.03
2019-02-26T16:51:07.785Z,3.27
2019-02-26T16:53:35.438Z,1.80
2019-02-26T16:56:03.053Z,1.57
2019-02-26T16:58:35.202Z,1.57
2019-02-26T17:00:59.025Z,1.95
2019-02-26T17:03:26.602Z,2.23
2019-02-26T17:05:54.198Z,2.30
2019-02-26T17:08:22.593Z,15.37
2019-02-26T17:10:50.950Z,33.13
2019-02-26T17:13:18.542Z,40.73
2019-02-26T17:15:46.923Z,28.67
2019-02-26T17:18:16.172Z,18.40
2019-02-26T17:20:42.154Z,17.07
2019-02-26T17:23:13.551Z,8.50
2019-02-26T17:25:37.343Z,6.47
2019-02-26T17:28:04.988Z,7.20
2019-02-26T17:30:32.568Z,6.77
2019-02-26T17:33:00.157Z,11.43
2019-02-26T17:35:29.592Z,11.85
2019-02-26T17:37:56.161Z,9.13
2019-02-26T17:40:23.739Z,8.13
2019-02-26T17:42:51.976Z,7.00
2019-02-26T17:45:24.994Z,8.10
2019-02-26T17:47:56.461Z,9.10
2019-02-26T17:50:31.811Z,8.60
2019-02-26T17:52:59.396Z,6.27
2019-02-26T17:55:26.981Z,5.03
2019-02-26T17:57:54.592Z,4.40
2019-02-26T18:00:24.144Z,3.57
2019-02-26T18:02:53.755Z,4.57
2019-02-26T18:05:21.344Z,4.43
2019-02-26T18:07:49.729Z,6.87
2019-02-26T18:10:17.360Z,5.43
2019-02-26T18:12:44.941Z,6.30
2019-02-26T18:15:16.723Z,6.80
2019-02-26T18:17:40.210Z,19.63
2019-02-26T18:20:08.573Z,14.50
2019-02-26T18:22:36.641Z,13.50
2019-02-26T18:25:04.257Z,13.63
2019-02-26T18:27:32.571Z,9.63
2019-02-26T18:30:00.247Z,6.97
2019-02-26T18:32:27.792Z,7.97
2019-02-26T18:34:55.374Z,6.47
2019-02-26T18:37:24.227Z,6.70
2019-02-26T18:39:54.361Z,5.90
2019-02-26T18:42:19.671Z,4.20
2019-02-26T18:44:47.582Z,3.60
2019-02-26T18:47:21.380Z,3.73
2019-02-26T18:49:48.889Z,3.20
2019-02-26T18:52:17.386Z,3.80
2019-02-26T18:54:44.951Z,3.60
2019-02-26T18:57:12.560Z,3.50
2019-02-26T18:59:40.272Z,4.00
2019-02-26T19:02:07.841Z,3.63
2019-02-26T19:04:35.434Z,4.07
2019-02-26T19:07:05.178Z,4.07
2019-02-26T19:09:31.089Z,3.97
2019-02-26T19:11:58.679Z,4.72
2019-02-26T19:14:26.292Z,4.50
2019-02-26T19:16:54.926Z,4.90
2019-02-26T19:19:22.327Z,9.70
2019-02-26T19:21:51.777Z,9.30
2019-02-26T19:24:19.923Z,6.63
2019-02-26T19:26:48.313Z,6.07
2019-02-26T19:29:15.903Z,6.67
2019-02-26T19:31:43.494Z,5.10
2019-02-26T19:34:11.112Z,5.10
2019-02-26T19:36:38.697Z,4.60
2019-02-26T19:39:07.006Z,5.20
2019-02-26T19:41:34.596Z,5.13
2019-02-26T19:44:02.183Z,4.70
2019-02-26T19:46:30.276Z,5.37
2019-02-26T19:48:57.859Z,4.97
2019-02-26T19:51:25.561Z,4.80
2019-02-26T19:53:53.048Z,5.53
2019-02-26T19:56:23.346Z,6.93
2019-02-26T19:58:49.760Z,5.60
2019-02-26T20:01:18.110Z,20.50
2019-02-26T20:03:45.695Z,13.83
2019-02-26T20:06:14.878Z,11.68
2019-02-26T20:08:42.457Z,8.07
2019-02-26T20:11:10.037Z,7.72
2019-02-26T20:13:42.074Z,10.20
2019-02-26T20:16:06.328Z,14.67
2019-02-26T20:18:33.910Z,7.93
2019-02-26T20:21:01.508Z,9.03
2019-02-26T20:23:29.087Z,8.43
2019-02-26T20:25:56.717Z,9.37
2019-02-26T20:28:25.669Z,5.50
2019-02-26T20:30:53.240Z,3.03
2019-02-26T20:33:20.896Z,3.10
2019-02-26T20:35:48.443Z,3.00
2019-02-26T20:38:16.019Z,3.30
2019-02-26T20:40:44.148Z,2.37
2019-02-26T20:43:11.726Z,2.67
2019-02-26T20:45:39.302Z,2.40
2019-02-26T20:48:06.968Z,2.83
2019-02-26T20:50:34.548Z,3.30
2019-02-26T20:53:05.642Z,3.63
2019-02-26T20:55:29.788Z,4.50
2019-02-26T20:57:57.373Z,5.70
2019-02-26T21:00:26.010Z,4.50
2019-02-26T21:02:53.410Z,4.17
2019-02-26T21:05:20.993Z,4.57
2019-02-26T21:07:49.605Z,3.90
2019-02-26T21:10:18.772Z,4.75
2019-02-26T21:12:46.345Z,4.07
2019-02-26T21:15:17.288Z,4.00
2019-02-26T21:17:45.312Z,3.97
2019-02-26T21:20:12.880Z,3.87
2019-02-26T21:22:41.021Z,4.03
2019-02-26T21:25:10.807Z,5.40
2019-02-26T21:27:36.256Z,6.23
2019-02-26T21:30:11.878Z,9.00
2019-02-26T21:32:37.782Z,18.40
2019-02-26T21:35:05.380Z,18.13
2019-02-26T21:37:33.354Z,26.20
2019-02-26T21:40:00.643Z,18.03
2019-02-26T21:42:29.569Z,21.93
2019-02-26T21:44:56.574Z,20.43
2019-02-26T21:47:24.355Z,16.47
2019-02-26T21:49:52.726Z,15.90
2019-02-26T21:52:20.305Z,10.73
2019-02-26T21:54:48.111Z,11.40
2019-02-26T21:57:15.712Z,11.23
2019-02-26T21:59:49.778Z,9.80
2019-02-26T22:02:11.972Z,10.57
2019-02-26T22:04:39.563Z,10.83
2019-02-26T22:07:07.134Z,7.63
2019-02-26T22:09:34.751Z,8.63
2019-02-26T22:12:02.333Z,8.17
2019-02-26T22:14:30.591Z,10.27
2019-02-26T22:16:58.172Z,8.20
2019-02-26T22:19:25.749Z,8.63
2019-02-26T22:21:53.357Z,9.60
2019-02-26T22:24:21.650Z,9.03
2019-02-26T22:26:49.270Z,8.23
2019-02-26T22:29:16.848Z,8.17
2019-02-26T22:31:44.431Z,8.00
2019-02-26T22:34:12.080Z,8.80
2019-02-26T22:36:39.666Z,6.27
2019-02-26T22:39:07.368Z,6.35
2019-02-26T22:41:35.156Z,4.17
2019-02-26T22:44:02.535Z,4.10
2019-02-26T22:46:33.713Z,3.73
2019-02-26T22:48:58.170Z,3.73
2019-02-26T22:51:25.786Z,3.50
2019-02-26T22:53:53.393Z,4.47
2019-02-26T22:56:21.886Z,3.93
2019-02-26T22:58:49.329Z,3.53
2019-02-26T23:01:30.577Z,4.30
2019-02-26T23:03:53.449Z,4.60
2019-02-26T23:06:21.072Z,3.97
2019-02-26T23:08:48.651Z,3.30
2019-02-26T23:11:16.229Z,3.40
2019-02-26T23:13:43.840Z,3.47
2019-02-26T23:16:12.177Z,3.87
2019-02-26T23:18:39.760Z,3.23
2019-02-26T23:21:07.359Z,3.47
2019-02-26T23:23:34.940Z,4.30
2019-02-26T23:26:02.577Z,3.60
2019-02-26T23:28:30.908Z,3.07
2019-02-26T23:30:59.880Z,3.80
2019-02-26T23:33:26.099Z,3.83
2019-02-26T23:35:55.125Z,4.47
2019-02-26T23:38:21.253Z,4.40
2019-02-26T23:40:48.879Z,3.50
2019-02-26T23:43:16.462Z,3.70
2019-02-26T23:45:44.033Z,3.40
2019-02-26T23:48:11.795Z,3.30
2019-02-26T23:50:39.365Z,3.63
2019-02-26T23:53:07.012Z,3.60
2019-02-26T23:55:34.588Z,3.87
2019-02-26T23:58:02.164Z,3.80
